createdAt,value
2023-04-21T00:00:40.964Z,8.82
2023-04-21T00:03:44.232Z,8.61
2023-04-21T00:06:48.474Z,8.63
2023-04-21T00:09:51.309Z,8.49
2023-04-21T00:12:53.941Z,8.73
2023-04-21T00:15:56.636Z,8.49
2023-04-21T00:18:59.361Z,8.57
2023-04-21T00:22:04.407Z,8.61
2023-04-21T00:25:08.220Z,8.53
2023-04-21T00:28:10.897Z,8.71
2023-04-21T00:31:13.553Z,8.61
2023-04-21T00:34:16.308Z,8.24
2023-04-21T00:37:20.404Z,8.34
2023-04-21T00:40:23.173Z,8.41
2023-04-21T00:43:26.367Z,8.44
2023-04-21T00:46:29.428Z,8.41
2023-04-21T00:49:32.395Z,8.43
2023-04-21T00:52:36.718Z,8.38
2023-04-21T00:55:39.428Z,8.34
2023-04-21T00:58:43.656Z,8.50
2023-04-21T01:01:46.374Z,8.49
2023-04-21T01:04:49.628Z,8.33
2023-04-21T01:07:54.006Z,8.48
2023-04-21T01:10:56.618Z,8.46
2023-04-21T01:13:59.266Z,8.50
2023-04-21T01:17:03.757Z,8.29
2023-04-21T01:20:10.657Z,8.34
2023-04-21T01:23:14.684Z,8.33
2023-04-21T01:26:19.080Z,8.42
2023-04-21T01:29:21.835Z,8.21
2023-04-21T01:32:27.376Z,8.22
2023-04-21T01:35:30.451Z,8.03
2023-04-21T01:38:34.546Z,8.26
2023-04-21T01:41:37.251Z,8.42
2023-04-21T01:44:40.695Z,8.24
2023-04-21T01:47:43.367Z,8.33
2023-04-21T01:50:46.038Z,8.27
2023-04-21T01:53:50.006Z,8.19
2023-04-21T01:56:52.715Z,8.33
2023-04-21T01:59:55.584Z,8.41
2023-04-21T02:02:58.440Z,8.29
2023-04-21T02:06:01.175Z,8.18
2023-04-21T02:09:05.320Z,8.19
2023-04-21T02:12:08.262Z,8.04
2023-04-21T02:15:12.008Z,8.08
2023-04-21T02:18:14.927Z,8.13
2023-04-21T02:21:17.696Z,8.09
2023-04-21T02:24:21.672Z,7.98
2023-04-21T02:27:24.332Z,7.98
2023-04-21T02:30:26.965Z,7.87
2023-04-21T02:33:29.677Z,7.94
2023-04-21T02:36:32.457Z,8.04
2023-04-21T02:39:36.384Z,8.21
2023-04-21T02:42:39.007Z,8.18
2023-04-21T02:45:41.653Z,8.03
2023-04-21T02:48:44.300Z,7.97
2023-04-21T02:51:46.939Z,8.21
2023-04-21T02:54:50.921Z,8.16
2023-04-21T02:57:53.571Z,8.21
2023-04-21T03:00:56.235Z,8.27
2023-04-21T03:03:58.892Z,8.17
2023-04-21T03:07:01.650Z,8.20
2023-04-21T03:10:06.355Z,8.05
2023-04-21T03:13:09.007Z,8.02
2023-04-21T03:16:11.686Z,8.26
2023-04-21T03:19:14.315Z,8.13
2023-04-21T03:22:16.981Z,8.12
2023-04-21T03:25:21.578Z,8.24
2023-04-21T03:28:24.195Z,8.08
2023-04-21T03:31:26.878Z,8.05
2023-04-21T03:34:29.525Z,8.14
2023-04-21T03:37:32.148Z,8.22
2023-04-21T03:40:36.143Z,8.22
2023-04-21T03:43:38.925Z,8.17
2023-04-21T03:46:41.535Z,8.24
2023-04-21T03:49:44.247Z,8.18
2023-04-21T03:52:46.866Z,8.08
2023-04-21T03:55:52.450Z,8.05
2023-04-21T03:58:55.189Z,8.04
2023-04-21T04:01:57.847Z,8.25
2023-04-21T04:05:00.560Z,8.22
2023-04-21T04:08:03.275Z,8.11
2023-04-21T04:11:07.334Z,8.07
2023-04-21T04:14:10.005Z,7.88
2023-04-21T04:17:12.635Z,7.82
2023-04-21T04:20:15.267Z,8.12
2023-04-21T04:23:18.008Z,8.00
2023-04-21T04:26:24.768Z,8.11
2023-04-21T04:29:27.860Z,8.02
2023-04-21T04:32:31.323Z,8.06
2023-04-21T04:35:34.949Z,8.28
2023-04-21T04:38:38.145Z,8.21
2023-04-21T04:41:42.430Z,8.33
2023-04-21T04:44:45.714Z,8.24
2023-04-21T04:47:48.418Z,8.35
2023-04-21T04:50:51.172Z,8.25
2023-04-21T04:53:53.826Z,8.21
2023-04-21T04:56:58.657Z,8.25
2023-04-21T05:00:01.297Z,8.21
2023-04-21T05:03:04.155Z,7.91
2023-04-21T05:06:07.422Z,8.29
2023-04-21T05:09:10.646Z,8.11
2023-04-21T05:12:14.664Z,8.29
2023-04-21T05:15:18.832Z,8.26
2023-04-21T05:18:21.475Z,8.48
2023-04-21T05:21:27.419Z,8.28
2023-04-21T05:24:30.184Z,8.50
2023-04-21T05:27:34.914Z,8.56
2023-04-21T05:30:37.573Z,8.61
2023-04-21T05:33:40.252Z,8.77
2023-04-21T05:36:43.059Z,8.94
2023-04-21T05:39:46.828Z,8.87
2023-04-21T05:42:50.851Z,8.92
2023-04-21T05:45:53.597Z,8.98
2023-04-21T05:48:56.254Z,9.15
2023-04-21T05:51:58.893Z,9.02
2023-04-21T05:55:02.141Z,9.17
2023-04-21T05:58:06.197Z,9.23
2023-04-21T06:01:09.312Z,9.41
2023-04-21T06:04:12.151Z,9.46
2023-04-21T06:07:15.958Z,9.59
2023-04-21T06:10:21.068Z,9.69
2023-04-21T06:13:27.119Z,9.86
2023-04-21T06:16:32.398Z,10.06
2023-04-21T06:19:38.310Z,10.03
2023-04-21T06:22:41.036Z,10.25
2023-04-21T06:25:43.615Z,10.33
2023-04-21T06:28:47.590Z,10.51
2023-04-21T06:31:50.336Z,10.48
2023-04-21T06:34:53.021Z,10.68
2023-04-21T06:37:55.706Z,10.93
2023-04-21T06:40:58.511Z,11.09
2023-04-21T06:44:02.518Z,11.18
2023-04-21T06:47:05.418Z,11.36
2023-04-21T06:50:09.110Z,11.40
2023-04-21T06:53:21.672Z,11.41
2023-04-21T06:56:24.351Z,11.65
2023-04-21T06:59:28.274Z,11.85
2023-04-21T07:02:31.111Z,12.05
2023-04-21T07:05:33.809Z,12.15
2023-04-21T07:08:36.407Z,12.35
2023-04-21T07:11:39.031Z,12.51
2023-04-21T07:14:42.974Z,12.66
2023-04-21T07:17:45.563Z,12.69
2023-04-21T07:20:48.265Z,12.79
2023-04-21T07:23:51.246Z,12.97
2023-04-21T07:26:53.833Z,13.24
2023-04-21T07:29:57.740Z,13.35
2023-04-21T07:33:00.681Z,13.49
2023-04-21T07:36:03.429Z,13.53
2023-04-21T07:39:06.297Z,13.65
2023-04-21T07:42:09.589Z,13.81
2023-04-21T07:45:13.868Z,14.04
2023-04-21T07:48:16.552Z,14.26
2023-04-21T07:51:19.515Z,14.33
2023-04-21T07:54:22.116Z,14.37
2023-04-21T07:57:25.197Z,14.47
2023-04-21T08:00:29.126Z,14.64
2023-04-21T08:03:31.833Z,14.83
2023-04-21T08:06:34.740Z,15.00
2023-04-21T08:09:37.420Z,15.13
2023-04-21T08:12:40.000Z,15.23
2023-04-21T08:15:44.070Z,15.45
2023-04-21T08:18:46.709Z,15.55
2023-04-21T08:21:49.328Z,15.63
2023-04-21T08:24:51.965Z,15.84
2023-04-21T08:27:54.640Z,15.97
2023-04-21T08:31:00.349Z,16.20
2023-04-21T08:34:03.205Z,16.26
2023-04-21T08:37:05.888Z,16.29
2023-04-21T08:40:09.604Z,16.47
2023-04-21T08:43:12.919Z,16.73
2023-04-21T08:46:17.572Z,16.77
2023-04-21T08:49:22.034Z,17.02
2023-04-21T08:52:24.813Z,17.27
2023-04-21T08:55:30.208Z,17.37
2023-04-21T08:58:33.164Z,17.66
2023-04-21T09:02:10.682Z,17.93
2023-04-21T09:05:23.551Z,18.20
2023-04-21T09:08:27.952Z,18.16
2023-04-21T09:11:34.464Z,18.08
2023-04-21T09:14:37.052Z,18.40
2023-04-21T09:17:41.029Z,18.82
2023-04-21T09:20:45.306Z,18.82
2023-04-21T09:23:49.401Z,19.17
2023-04-21T09:26:53.164Z,19.12
2023-04-21T09:29:56.887Z,19.36
2023-04-21T09:33:00.957Z,19.67
2023-04-21T09:36:04.175Z,19.96
2023-04-21T09:42:12.900Z,19.90
2023-04-21T09:45:32.975Z,20.20
2023-04-21T09:48:44.662Z,20.31
2023-04-21T09:55:00.534Z,20.89
2023-04-21T09:58:05.341Z,20.97
2023-04-21T10:01:09.500Z,21.56
2023-04-21T10:04:14.480Z,21.46
2023-04-21T10:07:17.308Z,21.76
2023-04-21T10:10:24.601Z,21.94
2023-04-21T10:13:27.774Z,22.24
2023-04-21T10:16:30.438Z,22.33
2023-04-21T10:19:39.669Z,22.97
2023-04-21T10:22:43.826Z,22.65
2023-04-21T10:25:50.068Z,22.45
2023-04-21T10:28:59.333Z,22.33
2023-04-21T10:32:02.145Z,23.10
2023-04-21T10:35:10.431Z,23.57
2023-04-21T10:38:36.252Z,24.25
2023-04-21T10:41:39.096Z,24.42
2023-04-21T10:44:43.005Z,23.86
2023-04-21T10:47:49.330Z,24.13
2023-04-21T10:50:53.450Z,24.28
2023-04-21T10:53:57.428Z,24.50
2023-04-21T10:57:01.564Z,25.14
2023-04-21T11:00:06.982Z,24.79
2023-04-21T11:03:09.979Z,25.22
2023-04-21T11:06:18.685Z,25.27
2023-04-21T11:09:21.393Z,25.18
2023-04-21T11:12:29.189Z,25.58
2023-04-21T11:15:32.060Z,25.67
2023-04-21T11:18:42.363Z,25.41
2023-04-21T11:21:49.738Z,25.72
2023-04-21T11:24:55.273Z,26.01
2023-04-21T11:28:00.000Z,25.91
2023-04-21T11:31:02.664Z,25.35
2023-04-21T11:34:07.351Z,26.07
2023-04-21T11:37:15.135Z,26.40
2023-04-21T11:40:17.719Z,26.24
2023-04-21T11:43:22.249Z,25.91
2023-04-21T11:46:28.257Z,26.30
2023-04-21T11:49:32.272Z,26.60
2023-04-21T11:52:38.203Z,26.55
2023-04-21T11:55:43.585Z,26.64
2023-04-21T11:58:46.918Z,26.94
2023-04-21T12:01:50.778Z,27.54
2023-04-21T12:05:01.221Z,27.72
2023-04-21T12:08:06.230Z,27.05
2023-04-21T12:11:08.926Z,27.22
2023-04-21T12:14:11.615Z,26.77
2023-04-21T12:17:14.310Z,26.37
2023-04-21T12:20:18.263Z,26.73
2023-04-21T12:23:22.232Z,27.18
2023-04-21T12:26:24.840Z,27.53
2023-04-21T12:29:27.420Z,27.36
2023-04-21T12:32:30.028Z,26.93
2023-04-21T12:35:33.415Z,27.49
2023-04-21T12:38:37.734Z,27.89
2023-04-21T12:41:40.566Z,28.15
2023-04-21T12:44:43.130Z,26.53
2023-04-21T12:47:47.038Z,26.96
2023-04-21T12:50:49.815Z,27.32
2023-04-21T12:53:53.798Z,27.19
2023-04-21T12:56:56.410Z,26.78
2023-04-21T12:59:59.016Z,26.99
2023-04-21T13:03:01.735Z,26.73
2023-04-21T13:06:04.670Z,27.19
2023-04-21T13:09:08.674Z,27.34
2023-04-21T13:12:11.562Z,26.54
2023-04-21T13:15:14.168Z,26.52
2023-04-21T13:18:16.817Z,26.20
2023-04-21T13:21:19.428Z,25.76
2023-04-21T13:24:23.564Z,25.77
2023-04-21T13:27:26.200Z,25.55
2023-04-21T13:30:28.848Z,24.97
2023-04-21T13:33:34.882Z,25.78
2023-04-21T13:36:37.581Z,25.94
2023-04-21T13:39:41.600Z,25.76
2023-04-21T13:42:44.686Z,25.72
2023-04-21T13:45:49.772Z,25.11
2023-04-21T13:48:52.425Z,25.17
2023-04-21T13:51:54.985Z,25.37
2023-04-21T13:54:59.087Z,25.67
2023-04-21T13:58:01.682Z,25.25
2023-04-21T14:01:04.752Z,24.32
2023-04-21T14:04:07.911Z,24.63
2023-04-21T14:07:11.017Z,24.34
2023-04-21T14:10:14.955Z,23.61
2023-04-21T14:16:26.045Z,23.22
2023-04-21T14:19:28.661Z,23.20
2023-04-21T14:22:31.228Z,22.53
2023-04-21T14:25:35.269Z,22.47
2023-04-21T14:28:37.899Z,22.84
2023-04-21T14:31:40.522Z,22.84
2023-04-21T14:34:43.114Z,22.57
2023-04-21T14:37:45.736Z,22.66
2023-04-21T14:40:51.329Z,23.11
2023-04-21T14:43:56.421Z,22.85
2023-04-21T14:47:09.325Z,22.51
2023-04-21T14:50:13.227Z,22.33
2023-04-21T14:53:16.005Z,22.01
2023-04-21T14:56:20.537Z,21.71
2023-04-21T14:59:23.886Z,21.66
2023-04-21T15:02:26.677Z,21.82
2023-04-21T15:05:29.465Z,21.65
2023-04-21T15:08:32.093Z,21.54
2023-04-21T15:11:36.168Z,21.39
2023-04-21T15:14:39.822Z,21.54
2023-04-21T15:17:42.462Z,21.46
2023-04-21T15:20:46.027Z,21.41
2023-04-21T15:23:48.957Z,21.21
2023-04-21T15:26:53.090Z,21.18
2023-04-21T15:29:56.039Z,21.19
2023-04-21T15:32:58.712Z,21.12
2023-04-21T15:36:01.380Z,21.18
2023-04-21T15:39:04.092Z,21.15
2023-04-21T15:42:09.493Z,21.04
2023-04-21T15:45:12.529Z,21.06
2023-04-21T15:48:16.719Z,21.02
2023-04-21T15:51:20.401Z,20.98
2023-04-21T15:54:23.435Z,20.76
2023-04-21T15:57:28.339Z,20.95
2023-04-21T16:00:30.953Z,20.77
2023-04-21T16:03:33.968Z,20.78
2023-04-21T16:06:36.894Z,20.76
2023-04-21T16:09:39.562Z,20.61
2023-04-21T16:12:44.543Z,20.61
2023-04-21T16:15:47.503Z,20.64
2023-04-21T16:18:50.182Z,20.45
2023-04-21T16:21:52.894Z,20.58
2023-04-21T16:24:55.955Z,20.46
2023-04-21T16:28:00.329Z,20.32
2023-04-21T16:31:03.209Z,20.30
2023-04-21T16:34:05.981Z,20.17
2023-04-21T16:37:08.949Z,20.04
2023-04-21T16:40:12.747Z,20.03
2023-04-21T16:43:16.984Z,19.86
2023-04-21T16:46:19.582Z,19.89
2023-04-21T16:49:22.238Z,19.67
2023-04-21T16:52:25.542Z,19.68
2023-04-21T16:55:29.081Z,19.70
2023-04-21T16:58:32.999Z,19.76
2023-04-21T17:01:35.820Z,19.63
2023-04-21T17:04:40.043Z,19.52
2023-04-21T17:07:44.504Z,19.54
2023-04-21T17:10:47.132Z,19.50
2023-04-21T17:13:51.076Z,19.44
2023-04-21T17:16:54.575Z,19.22
2023-04-21T17:19:57.245Z,19.15
2023-04-21T17:22:59.874Z,19.14
2023-04-21T17:26:03.639Z,19.01
2023-04-21T17:29:08.723Z,18.96
2023-04-21T17:32:11.433Z,19.01
2023-04-21T17:35:14.060Z,19.02
2023-04-21T17:38:16.754Z,18.73
2023-04-21T17:41:19.964Z,18.65
2023-04-21T17:44:23.869Z,18.66
2023-04-21T17:47:26.770Z,18.65
2023-04-21T17:50:31.108Z,18.60
2023-04-21T17:53:33.785Z,18.56
2023-04-21T17:56:36.563Z,18.26
2023-04-21T17:59:40.644Z,18.17
2023-04-21T18:02:43.268Z,18.07
2023-04-21T18:05:46.097Z,18.14
2023-04-21T18:08:48.725Z,18.03
2023-04-21T18:11:51.322Z,18.08
2023-04-21T18:14:55.557Z,18.00
2023-04-21T18:17:58.213Z,17.88
2023-04-21T18:21:00.845Z,17.77
2023-04-21T18:24:04.106Z,17.52
2023-04-21T18:27:07.179Z,17.63
2023-04-21T18:30:11.624Z,17.52
2023-04-21T18:33:14.351Z,17.36
2023-04-21T18:36:17.311Z,17.28
2023-04-21T18:39:19.952Z,17.04
2023-04-21T18:42:22.573Z,17.04
2023-04-21T18:45:26.549Z,16.88
2023-04-21T18:48:29.177Z,16.63
2023-04-21T18:51:32.403Z,16.63
2023-04-21T18:54:35.308Z,16.58
2023-04-21T18:57:38.113Z,16.28
2023-04-21T19:00:42.175Z,16.35
2023-04-21T19:03:45.783Z,16.49
2023-04-21T19:06:49.385Z,16.26
2023-04-21T19:09:53.597Z,16.34
2023-04-21T19:12:56.312Z,16.19
2023-04-21T19:16:01.326Z,16.18
2023-04-21T19:19:04.805Z,16.02
2023-04-21T19:22:07.406Z,15.86
2023-04-21T19:25:12.315Z,15.73
2023-04-21T19:28:14.883Z,15.65
2023-04-21T19:31:21.569Z,15.61
2023-04-21T19:34:24.293Z,15.42
2023-04-21T19:37:28.004Z,15.44
2023-04-21T19:40:30.677Z,15.52
2023-04-21T19:43:33.350Z,15.36
2023-04-21T19:46:37.416Z,15.40
2023-04-21T19:49:40.311Z,15.39
2023-04-21T19:52:43.029Z,15.30
2023-04-21T19:55:46.400Z,15.22
2023-04-21T19:58:49.020Z,15.18
2023-04-21T20:01:52.964Z,14.95
2023-04-21T20:04:55.798Z,14.92
2023-04-21T20:07:59.585Z,14.79
2023-04-21T20:11:02.201Z,14.79
2023-04-21T20:14:04.807Z,14.95
2023-04-21T20:17:08.760Z,14.82
2023-04-21T20:20:13.081Z,14.69
2023-04-21T20:23:16.018Z,14.74
2023-04-21T20:26:18.729Z,14.79
2023-04-21T20:29:21.488Z,14.80
2023-04-21T20:32:25.599Z,14.72
2023-04-21T20:35:30.403Z,14.60
2023-04-21T20:38:34.440Z,14.56
2023-04-21T20:41:37.023Z,14.59
2023-04-21T20:44:41.204Z,14.63
2023-04-21T20:47:45.313Z,14.46
2023-04-21T20:50:49.851Z,14.48
2023-04-21T20:53:53.916Z,14.35
2023-04-21T20:56:56.585Z,14.14
2023-04-21T20:59:59.430Z,14.32
2023-04-21T21:03:04.531Z,14.17
2023-04-21T21:06:07.462Z,14.14
2023-04-21T21:09:10.039Z,14.20
2023-04-21T21:12:12.639Z,14.18
2023-04-21T21:15:15.424Z,14.09
2023-04-21T21:18:19.382Z,13.88
2023-04-21T21:21:21.965Z,13.90
2023-04-21T21:24:26.190Z,14.02
2023-04-21T21:27:28.882Z,13.95
2023-04-21T21:30:31.493Z,13.89
2023-04-21T21:33:35.454Z,13.70
2023-04-21T21:36:38.305Z,13.79
2023-04-21T21:39:41.056Z,13.68
2023-04-21T21:42:43.680Z,13.77
2023-04-21T21:45:46.498Z,13.56
2023-04-21T21:48:51.084Z,13.66
2023-04-21T21:51:54.572Z,13.54
2023-04-21T21:54:58.299Z,13.66
2023-04-21T21:58:03.436Z,13.45
2023-04-21T22:01:06.573Z,13.46
2023-04-21T22:04:10.674Z,13.30
2023-04-21T22:07:13.922Z,13.33
2023-04-21T22:10:16.510Z,13.25
2023-04-21T22:13:19.109Z,13.23
2023-04-21T22:16:22.271Z,13.37
2023-04-21T22:19:26.402Z,13.27
2023-04-21T22:22:29.291Z,13.23
2023-04-21T22:25:31.918Z,13.05
2023-04-21T22:28:34.582Z,13.11
2023-04-21T22:31:37.903Z,13.24
2023-04-21T22:34:41.969Z,13.20
2023-04-21T22:37:44.554Z,13.20
2023-04-21T22:40:47.886Z,13.09
2023-04-21T22:43:50.489Z,13.16
2023-04-21T22:46:53.186Z,13.07
2023-04-21T22:49:57.191Z,13.16
2023-04-21T22:52:59.789Z,13.03
2023-04-21T22:56:02.529Z,12.75
2023-04-21T22:59:05.332Z,12.79
2023-04-21T23:02:08.144Z,12.53
2023-04-21T23:05:12.334Z,12.84
2023-04-21T23:08:14.956Z,12.77
2023-04-21T23:11:17.582Z,12.81
2023-04-21T23:14:20.236Z,12.67
2023-04-21T23:17:22.869Z,12.45
2023-04-21T23:20:26.935Z,12.56
2023-04-21T23:23:29.753Z,12.74
2023-04-21T23:26:32.416Z,12.80
2023-04-21T23:29:35.367Z,12.74
2023-04-21T23:32:38.053Z,12.71
2023-04-21T23:35:42.072Z,12.59
2023-04-21T23:38:44.653Z,12.47
2023-04-21T23:41:47.271Z,12.40
2023-04-21T23:44:49.838Z,12.48
2023-04-21T23:47:52.427Z,12.58
2023-04-21T23:50:56.475Z,12.54
2023-04-21T23:53:59.057Z,12.60
2023-04-21T23:57:02.339Z,12.45
